sensor_id;sensor_type;location;lat;lon;timestamp;temperature;humidity
26408;DHT22;14583;43.604;1.364;2022-12-07T00:01:53;8.70;99.90
26408;DHT22;14583;43.604;1.364;2022-12-07T00:04:19;8.70;99.90
26408;DHT22;14583;43.604;1.364;2022-12-07T00:06:47;8.70;99.90
26408;DHT22;14583;43.604;1.364;2022-12-07T00:09:16;8.70;99.90
26408;DHT22;14583;43.604;1.364;2022-12-07T00:11:43;8.70;99.90
26408;DHT22;14583;43.604;1.364;2022-12-07T00:14:14;8.70;99.90
26408;DHT22;14583;43.604;1.364;2022-12-07T00:16:48;8.70;99.90
26408;DHT22;14583;43.604;1.364;2022-12-07T00:19:14;8.70;99.90
26408;DHT22;14583;43.604;1.364;2022-12-07T00:21:40;8.70;99.90
26408;DHT22;14583;43.604;1.364;2022-12-07T00:24:12;8.70;99.90
26408;DHT22;14583;43.604;1.364;2022-12-07T00:26:40;8.70;99.90
26408;DHT22;14583;43.604;1.364;2022-12-07T00:29:18;8.70;99.90
26408;DHT22;14583;43.604;1.364;2022-12-07T00:31:44;8.60;99.90
26408;DHT22;14583;43.604;1.364;2022-12-07T00:34:16;8.60;99.90
26408;DHT22;14583;43.604;1.364;2022-12-07T00:36:42;8.60;99.90
26408;DHT22;14583;43.604;1.364;2022-12-07T00:39:11;8.60;99.90
26408;DHT22;14583;43.604;1.364;2022-12-07T00:41:45;8.70;99.90
26408;DHT22;14583;43.604;1.364;2022-12-07T00:44:17;8.70;99.90
26408;DHT22;14583;43.604;1.364;2022-12-07T00:46:43;8.70;99.90
26408;DHT22;14583;43.604;1.364;2022-12-07T00:49:12;8.70;99.90
26408;DHT22;14583;43.604;1.364;2022-12-07T00:51:37;8.70;99.90
26408;DHT22;14583;43.604;1.364;2022-12-07T00:54:03;8.60;99.90
26408;DHT22;14583;43.604;1.364;2022-12-07T00:56:29;8.60;99.90
26408;DHT22;14583;43.604;1.364;2022-12-07T00:58:57;8.60;99.90
26408;DHT22;14583;43.604;1.364;2022-12-07T01:01:25;8.60;99.90
26408;DHT22;14583;43.604;1.364;2022-12-07T01:03:51;8.60;99.90
26408;DHT22;14583;43.604;1.364;2022-12-07T01:06:21;8.60;99.90
26408;DHT22;14583;43.604;1.364;2022-12-07T01:08:48;8.60;99.90
26408;DHT22;14583;43.604;1.364;2022-12-07T01:11:16;8.60;99.90
26408;DHT22;14583;43.604;1.364;2022-12-07T01:13:44;8.50;99.90
26408;DHT22;14583;43.604;1.364;2022-12-07T01:16:12;8.50;99.90
26408;DHT22;14583;43.604;1.364;2022-12-07T01:18:38;8.50;99.90
26408;DHT22;14583;43.604;1.364;2022-12-07T01:21:09;8.50;99.90
26408;DHT22;14583;43.604;1.364;2022-12-07T01:23:41;8.50;99.90
26408;DHT22;14583;43.604;1.364;2022-12-07T01:26:10;8.60;99.90
26408;DHT22;14583;43.604;1.364;2022-12-07T01:28:36;8.60;99.90
26408;DHT22;14583;43.604;1.364;2022-12-07T01:31:20;8.60;99.90
26408;DHT22;14583;43.604;1.364;2022-12-07T01:33:57;8.60;99.90
26408;DHT22;14583;43.604;1.364;2022-12-07T01:36:29;8.50;99.90
26408;DHT22;14583;43.604;1.364;2022-12-07T01:39:01;8.50;99.90
26408;DHT22;14583;43.604;1.364;2022-12-07T01:41:39;8.50;99.90
26408;DHT22;14583;43.604;1.364;2022-12-07T01:44:18;8.40;99.90
26408;DHT22;14583;43.604;1.364;2022-12-07T01:46:47;8.50;99.90
26408;DHT22;14583;43.604;1.364;2022-12-07T01:51:58;8.50;99.90
26408;DHT22;14583;43.604;1.364;2022-12-07T01:54:32;8.50;99.90
26408;DHT22;14583;43.604;1.364;2022-12-07T01:56:58;8.40;99.90
26408;DHT22;14583;43.604;1.364;2022-12-07T01:59:25;8.40;99.90
26408;DHT22;14583;43.604;1.364;2022-12-07T02:01:55;8.50;99.90
26408;DHT22;14583;43.604;1.364;2022-12-07T02:04:22;8.40;99.90
26408;DHT22;14583;43.604;1.364;2022-12-07T02:06:52;8.40;99.90
26408;DHT22;14583;43.604;1.364;2022-12-07T02:09:23;8.40;99.90
26408;DHT22;14583;43.604;1.364;2022-12-07T02:11:49;8.40;99.90
26408;DHT22;14583;43.604;1.364;2022-12-07T02:14:15;8.50;99.90
26408;DHT22;14583;43.604;1.364;2022-12-07T02:25:13;8.50;99.90
26408;DHT22;14583;43.604;1.364;2022-12-07T02:27:50;8.50;99.90
26408;DHT22;14583;43.604;1.364;2022-12-07T02:30:20;8.50;99.90
26408;DHT22;14583;43.604;1.364;2022-12-07T02:33:06;8.50;99.90
26408;DHT22;14583;43.604;1.364;2022-12-07T02:35:48;8.50;99.90
26408;DHT22;14583;43.604;1.364;2022-12-07T02:38:20;8.50;99.90
26408;DHT22;14583;43.604;1.364;2022-12-07T02:43:26;8.50;99.90
26408;DHT22;14583;43.604;1.364;2022-12-07T02:45:56;8.50;99.90
26408;DHT22;14583;43.604;1.364;2022-12-07T02:48:25;8.40;99.90
26408;DHT22;14583;43.604;1.364;2022-12-07T02:50:52;8.50;99.90
26408;DHT22;14583;43.604;1.364;2022-12-07T02:53:47;8.50;99.90
26408;DHT22;14583;43.604;1.364;2022-12-07T03:16:14;8.60;99.90
26408;DHT22;14583;43.604;1.364;2022-12-07T03:18:53;8.50;99.90
26408;DHT22;14583;43.604;1.364;2022-12-07T03:21:40;8.50;99.90
26408;DHT22;14583;43.604;1.364;2022-12-07T03:24:14;8.40;99.90
26408;DHT22;14583;43.604;1.364;2022-12-07T03:27:11;8.40;99.90
26408;DHT22;14583;43.604;1.364;2022-12-07T03:29:43;8.50;99.90
26408;DHT22;14583;43.604;1.364;2022-12-07T03:41:15;8.50;99.90
26408;DHT22;14583;43.604;1.364;2022-12-07T03:43:40;8.50;99.90
26408;DHT22;14583;43.604;1.364;2022-12-07T03:51:46;8.50;99.90
26408;DHT22;14583;43.604;1.364;2022-12-07T03:54:19;8.50;99.90
26408;DHT22;14583;43.604;1.364;2022-12-07T03:56:47;8.50;99.90
26408;DHT22;14583;43.604;1.364;2022-12-07T03:59:14;8.50;99.90
26408;DHT22;14583;43.604;1.364;2022-12-07T04:01:45;8.40;99.90
26408;DHT22;14583;43.604;1.364;2022-12-07T04:04:19;8.50;99.90
26408;DHT22;14583;43.604;1.364;2022-12-07T04:06:45;8.50;99.90
26408;DHT22;14583;43.604;1.364;2022-12-07T04:09:11;8.50;99.90
26408;DHT22;14583;43.604;1.364;2022-12-07T04:11:36;8.50;99.90
26408;DHT22;14583;43.604;1.364;2022-12-07T04:14:11;8.50;99.90
26408;DHT22;14583;43.604;1.364;2022-12-07T04:16:53;8.40;99.90
26408;DHT22;14583;43.604;1.364;2022-12-07T04:19:24;8.40;99.90
26408;DHT22;14583;43.604;1.364;2022-12-07T04:21:53;8.40;99.90
26408;DHT22;14583;43.604;1.364;2022-12-07T04:24:19;8.50;99.90
26408;DHT22;14583;43.604;1.364;2022-12-07T04:26:45;8.50;99.90
26408;DHT22;14583;43.604;1.364;2022-12-07T04:29:12;8.50;99.90
26408;DHT22;14583;43.604;1.364;2022-12-07T04:31:38;8.40;99.90
26408;DHT22;14583;43.604;1.364;2022-12-07T04:34:04;8.40;99.90
26408;DHT22;14583;43.604;1.364;2022-12-07T04:36:31;8.40;99.90
26408;DHT22;14583;43.604;1.364;2022-12-07T04:38:57;8.40;99.90
26408;DHT22;14583;43.604;1.364;2022-12-07T04:41:23;8.40;99.90
26408;DHT22;14583;43.604;1.364;2022-12-07T04:43:56;8.40;99.90
26408;DHT22;14583;43.604;1.364;2022-12-07T04:46:23;8.50;99.90
26408;DHT22;14583;43.604;1.364;2022-12-07T04:48:50;8.50;99.90
26408;DHT22;14583;43.604;1.364;2022-12-07T04:51:19;8.50;99.90
26408;DHT22;14583;43.604;1.364;2022-12-07T04:53:45;8.50;99.90
26408;DHT22;14583;43.604;1.364;2022-12-07T04:56:10;8.50;99.90
26408;DHT22;14583;43.604;1.364;2022-12-07T04:58:36;8.50;99.90
26408;DHT22;14583;43.604;1.364;2022-12-07T05:01:02;8.50;99.90
26408;DHT22;14583;43.604;1.364;2022-12-07T05:03:28;8.40;99.90
26408;DHT22;14583;43.604;1.364;2022-12-07T05:05:53;8.40;99.90
26408;DHT22;14583;43.604;1.364;2022-12-07T05:08:19;8.40;99.90
26408;DHT22;14583;43.604;1.364;2022-12-07T05:10:45;8.50;99.90
26408;DHT22;14583;43.604;1.364;2022-12-07T05:13:10;8.40;99.90
26408;DHT22;14583;43.604;1.364;2022-12-07T05:15:36;8.50;99.90
26408;DHT22;14583;43.604;1.364;2022-12-07T05:18:02;8.40;99.90
26408;DHT22;14583;43.604;1.364;2022-12-07T05:20:28;8.40;99.90
26408;DHT22;14583;43.604;1.364;2022-12-07T05:22:54;8.40;99.90
26408;DHT22;14583;43.604;1.364;2022-12-07T05:25:20;8.40;99.90
26408;DHT22;14583;43.604;1.364;2022-12-07T05:27:46;8.40;99.90
26408;DHT22;14583;43.604;1.364;2022-12-07T05:30:15;8.40;99.90
26408;DHT22;14583;43.604;1.364;2022-12-07T05:32:41;8.40;99.90
26408;DHT22;14583;43.604;1.364;2022-12-07T05:35:07;8.40;99.90
26408;DHT22;14583;43.604;1.364;2022-12-07T05:37:33;8.50;99.90
26408;DHT22;14583;43.604;1.364;2022-12-07T05:39:59;8.50;99.90
26408;DHT22;14583;43.604;1.364;2022-12-07T05:42:24;8.50;99.90
26408;DHT22;14583;43.604;1.364;2022-12-07T05:44:50;8.40;99.90
26408;DHT22;14583;43.604;1.364;2022-12-07T05:47:16;8.40;99.90
26408;DHT22;14583;43.604;1.364;2022-12-07T05:49:42;8.40;99.90
26408;DHT22;14583;43.604;1.364;2022-12-07T05:52:08;8.40;99.90
26408;DHT22;14583;43.604;1.364;2022-12-07T05:54:33;8.40;99.90
26408;DHT22;14583;43.604;1.364;2022-12-07T05:56:59;8.40;99.90
26408;DHT22;14583;43.604;1.364;2022-12-07T05:59:36;8.40;99.90
26408;DHT22;14583;43.604;1.364;2022-12-07T06:02:38;8.30;99.90
26408;DHT22;14583;43.604;1.364;2022-12-07T06:05:04;8.40;99.90
26408;DHT22;14583;43.604;1.364;2022-12-07T06:07:39;8.40;99.90
26408;DHT22;14583;43.604;1.364;2022-12-07T06:10:46;8.40;99.90
26408;DHT22;14583;43.604;1.364;2022-12-07T06:13:32;8.40;99.90
26408;DHT22;14583;43.604;1.364;2022-12-07T06:15:58;8.40;99.90
26408;DHT22;14583;43.604;1.364;2022-12-07T06:18:34;8.40;99.90
26408;DHT22;14583;43.604;1.364;2022-12-07T06:21:18;8.40;99.90
26408;DHT22;14583;43.604;1.364;2022-12-07T06:23:44;8.40;99.90
26408;DHT22;14583;43.604;1.364;2022-12-07T06:26:09;8.40;99.90
26408;DHT22;14583;43.604;1.364;2022-12-07T06:28:47;8.30;99.90
26408;DHT22;14583;43.604;1.364;2022-12-07T06:31:13;8.20;99.90
26408;DHT22;14583;43.604;1.364;2022-12-07T06:33:38;8.20;99.90
26408;DHT22;14583;43.604;1.364;2022-12-07T06:36:04;8.20;99.90
26408;DHT22;14583;43.604;1.364;2022-12-07T06:38:39;8.20;99.90
26408;DHT22;14583;43.604;1.364;2022-12-07T06:41:05;8.20;99.90
26408;DHT22;14583;43.604;1.364;2022-12-07T06:43:32;8.20;99.90
26408;DHT22;14583;43.604;1.364;2022-12-07T06:45:58;8.20;99.90
26408;DHT22;14583;43.604;1.364;2022-12-07T06:48:23;8.30;99.90
26408;DHT22;14583;43.604;1.364;2022-12-07T06:50:49;8.30;99.90
26408;DHT22;14583;43.604;1.364;2022-12-07T06:53:22;8.30;99.90
26408;DHT22;14583;43.604;1.364;2022-12-07T06:55:47;8.30;99.90
26408;DHT22;14583;43.604;1.364;2022-12-07T06:58:25;8.20;99.90
26408;DHT22;14583;43.604;1.364;2022-12-07T07:00:51;8.20;99.90
26408;DHT22;14583;43.604;1.364;2022-12-07T07:03:17;8.20;99.90
26408;DHT22;14583;43.604;1.364;2022-12-07T07:05:46;8.30;99.90
26408;DHT22;14583;43.604;1.364;2022-12-07T07:08:13;8.30;99.90
26408;DHT22;14583;43.604;1.364;2022-12-07T07:10:38;8.30;99.90
26408;DHT22;14583;43.604;1.364;2022-12-07T07:13:05;8.30;99.90
26408;DHT22;14583;43.604;1.364;2022-12-07T07:15:34;8.30;99.90
26408;DHT22;14583;43.604;1.364;2022-12-07T07:18:00;8.20;99.90
26408;DHT22;14583;43.604;1.364;2022-12-07T07:20:26;8.20;99.90
26408;DHT22;14583;43.604;1.364;2022-12-07T07:23:12;8.20;99.90
26408;DHT22;14583;43.604;1.364;2022-12-07T07:25:38;8.30;99.90
26408;DHT22;14583;43.604;1.364;2022-12-07T07:28:04;8.30;99.90
26408;DHT22;14583;43.604;1.364;2022-12-07T07:30:30;8.30;99.90
26408;DHT22;14583;43.604;1.364;2022-12-07T07:33:03;8.30;99.90
26408;DHT22;14583;43.604;1.364;2022-12-07T07:35:31;8.30;99.90
26408;DHT22;14583;43.604;1.364;2022-12-07T07:37:57;8.40;99.90
26408;DHT22;14583;43.604;1.364;2022-12-07T07:40:24;8.30;99.90
26408;DHT22;14583;43.604;1.364;2022-12-07T07:42:51;8.40;99.90
26408;DHT22;14583;43.604;1.364;2022-12-07T07:45:17;8.40;99.90
26408;DHT22;14583;43.604;1.364;2022-12-07T07:47:43;8.30;99.90
26408;DHT22;14583;43.604;1.364;2022-12-07T07:50:09;8.40;99.90
26408;DHT22;14583;43.604;1.364;2022-12-07T07:52:35;8.40;99.90
26408;DHT22;14583;43.604;1.364;2022-12-07T07:55:01;8.40;99.90
26408;DHT22;14583;43.604;1.364;2022-12-07T07:57:26;8.40;99.90
26408;DHT22;14583;43.604;1.364;2022-12-07T07:59:52;8.40;99.90
26408;DHT22;14583;43.604;1.364;2022-12-07T08:02:20;8.50;99.90
26408;DHT22;14583;43.604;1.364;2022-12-07T08:04:46;8.40;99.90
26408;DHT22;14583;43.604;1.364;2022-12-07T08:07:13;8.50;99.90
26408;DHT22;14583;43.604;1.364;2022-12-07T08:09:39;8.50;99.90
26408;DHT22;14583;43.604;1.364;2022-12-07T08:12:05;8.50;99.90
26408;DHT22;14583;43.604;1.364;2022-12-07T08:14:30;8.50;99.90
26408;DHT22;14583;43.604;1.364;2022-12-07T08:16:56;8.50;99.90
26408;DHT22;14583;43.604;1.364;2022-12-07T08:19:22;8.60;99.90
26408;DHT22;14583;43.604;1.364;2022-12-07T08:21:48;8.60;99.90
26408;DHT22;14583;43.604;1.364;2022-12-07T08:24:14;8.60;99.90
26408;DHT22;14583;43.604;1.364;2022-12-07T08:26:40;8.70;99.90
26408;DHT22;14583;43.604;1.364;2022-12-07T08:29:06;8.70;99.90
26408;DHT22;14583;43.604;1.364;2022-12-07T08:31:32;8.70;99.90
26408;DHT22;14583;43.604;1.364;2022-12-07T08:33:58;8.70;99.90
26408;DHT22;14583;43.604;1.364;2022-12-07T08:36:23;8.80;99.90
26408;DHT22;14583;43.604;1.364;2022-12-07T08:38:49;8.80;99.90
26408;DHT22;14583;43.604;1.364;2022-12-07T08:41:15;8.90;99.90
26408;DHT22;14583;43.604;1.364;2022-12-07T08:43:42;8.90;99.90
26408;DHT22;14583;43.604;1.364;2022-12-07T08:48:49;8.90;99.90
26408;DHT22;14583;43.604;1.364;2022-12-07T08:51:16;9.00;99.90
26408;DHT22;14583;43.604;1.364;2022-12-07T08:53:42;9.00;99.90
26408;DHT22;14583;43.604;1.364;2022-12-07T08:56:09;9.00;99.90
26408;DHT22;14583;43.604;1.364;2022-12-07T08:58:36;9.00;99.90
26408;DHT22;14583;43.604;1.364;2022-12-07T09:01:03;9.00;99.90
26408;DHT22;14583;43.604;1.364;2022-12-07T09:03:30;9.00;99.90
26408;DHT22;14583;43.604;1.364;2022-12-07T09:05:59;9.10;99.90
26408;DHT22;14583;43.604;1.364;2022-12-07T09:08:33;9.00;99.90
26408;DHT22;14583;43.604;1.364;2022-12-07T09:11:00;9.00;99.90
26408;DHT22;14583;43.604;1.364;2022-12-07T09:13:26;9.00;99.90
26408;DHT22;14583;43.604;1.364;2022-12-07T09:15:52;9.00;99.90
26408;DHT22;14583;43.604;1.364;2022-12-07T09:18:18;9.00;99.90
26408;DHT22;14583;43.604;1.364;2022-12-07T09:20:43;9.00;99.90
26408;DHT22;14583;43.604;1.364;2022-12-07T09:23:09;9.00;99.90
26408;DHT22;14583;43.604;1.364;2022-12-07T09:25:35;9.00;99.90
26408;DHT22;14583;43.604;1.364;2022-12-07T09:28:01;9.00;99.90
26408;DHT22;14583;43.604;1.364;2022-12-07T09:30:27;9.00;99.90
26408;DHT22;14583;43.604;1.364;2022-12-07T09:32:55;9.00;99.90
26408;DHT22;14583;43.604;1.364;2022-12-07T09:35:21;9.10;99.90
26408;DHT22;14583;43.604;1.364;2022-12-07T09:37:47;9.10;99.90
26408;DHT22;14583;43.604;1.364;2022-12-07T09:40:14;9.20;99.90
26408;DHT22;14583;43.604;1.364;2022-12-07T09:42:44;9.20;99.90
26408;DHT22;14583;43.604;1.364;2022-12-07T09:45:15;9.30;99.90
26408;DHT22;14583;43.604;1.364;2022-12-07T09:47:42;9.30;99.90
26408;DHT22;14583;43.604;1.364;2022-12-07T09:50:16;9.30;99.90
26408;DHT22;14583;43.604;1.364;2022-12-07T09:52:44;9.40;99.90
26408;DHT22;14583;43.604;1.364;2022-12-07T09:55:16;9.40;99.90
26408;DHT22;14583;43.604;1.364;2022-12-07T09:57:45;9.50;99.90
26408;DHT22;14583;43.604;1.364;2022-12-07T10:00:19;9.50;99.90
26408;DHT22;14583;43.604;1.364;2022-12-07T10:02:58;9.50;99.90
26408;DHT22;14583;43.604;1.364;2022-12-07T10:07:54;9.60;99.90
26408;DHT22;14583;43.604;1.364;2022-12-07T10:10:26;9.60;99.90
26408;DHT22;14583;43.604;1.364;2022-12-07T10:13:05;9.60;99.90
26408;DHT22;14583;43.604;1.364;2022-12-07T10:15:51;9.70;99.90
26408;DHT22;14583;43.604;1.364;2022-12-07T10:18:40;9.70;99.90
26408;DHT22;14583;43.604;1.364;2022-12-07T10:24:07;9.80;99.90
26408;DHT22;14583;43.604;1.364;2022-12-07T10:26:51;9.80;99.90
26408;DHT22;14583;43.604;1.364;2022-12-07T10:29:20;9.90;99.90
26408;DHT22;14583;43.604;1.364;2022-12-07T10:31:57;9.90;99.90
26408;DHT22;14583;43.604;1.364;2022-12-07T10:34:35;10.00;99.90
26408;DHT22;14583;43.604;1.364;2022-12-07T10:39:56;10.00;99.90
26408;DHT22;14583;43.604;1.364;2022-12-07T10:44:49;10.10;99.90
26408;DHT22;14583;43.604;1.364;2022-12-07T10:50:18;10.10;99.90
26408;DHT22;14583;43.604;1.364;2022-12-07T11:01:13;10.30;99.90
26408;DHT22;14583;43.604;1.364;2022-12-07T11:06:30;10.40;99.90
26408;DHT22;14583;43.604;1.364;2022-12-07T11:09:11;10.40;99.90
26408;DHT22;14583;43.604;1.364;2022-12-07T11:14:54;10.40;99.90
26408;DHT22;14583;43.604;1.364;2022-12-07T11:17:45;10.40;99.90
26408;DHT22;14583;43.604;1.364;2022-12-07T11:20:37;10.50;99.90
26408;DHT22;14583;43.604;1.364;2022-12-07T11:36:54;10.60;99.90
26408;DHT22;14583;43.604;1.364;2022-12-07T11:41:49;10.60;99.90
26408;DHT22;14583;43.604;1.364;2022-12-07T11:47:30;10.60;99.90
26408;DHT22;14583;43.604;1.364;2022-12-07T11:55:51;10.70;99.90
26408;DHT22;14583;43.604;1.364;2022-12-07T11:58:54;10.70;99.90
26408;DHT22;14583;43.604;1.364;2022-12-07T12:06:41;10.80;99.90
26408;DHT22;14583;43.604;1.364;2022-12-07T12:09:31;10.80;99.90
26408;DHT22;14583;43.604;1.364;2022-12-07T12:20:49;11.00;99.90
26408;DHT22;14583;43.604;1.364;2022-12-07T12:25:45;11.10;99.90
26408;DHT22;14583;43.604;1.364;2022-12-07T12:28:40;11.10;99.90
26408;DHT22;14583;43.604;1.364;2022-12-07T12:31:17;11.10;99.90
26408;DHT22;14583;43.604;1.364;2022-12-07T12:33:56;11.10;99.90
26408;DHT22;14583;43.604;1.364;2022-12-07T12:36:48;11.20;99.90
26408;DHT22;14583;43.604;1.364;2022-12-07T12:39:15;11.20;99.90
26408;DHT22;14583;43.604;1.364;2022-12-07T12:51:54;11.30;99.90
26408;DHT22;14583;43.604;1.364;2022-12-07T12:59:33;11.50;99.90
26408;DHT22;14583;43.604;1.364;2022-12-07T13:04:53;11.50;99.90
26408;DHT22;14583;43.604;1.364;2022-12-07T13:08:00;11.50;99.90
26408;DHT22;14583;43.604;1.364;2022-12-07T13:15:54;11.60;99.90
26408;DHT22;14583;43.604;1.364;2022-12-07T13:18:36;11.60;99.90
26408;DHT22;14583;43.604;1.364;2022-12-07T13:26:22;11.80;99.90
26408;DHT22;14583;43.604;1.364;2022-12-07T13:28:49;11.90;99.90
26408;DHT22;14583;43.604;1.364;2022-12-07T13:33:47;12.00;99.90
26408;DHT22;14583;43.604;1.364;2022-12-07T13:36:23;12.10;99.90
26408;DHT22;14583;43.604;1.364;2022-12-07T13:38:56;12.10;99.90
26408;DHT22;14583;43.604;1.364;2022-12-07T13:41:24;12.10;99.90
26408;DHT22;14583;43.604;1.364;2022-12-07T13:46:24;12.30;99.90
26408;DHT22;14583;43.604;1.364;2022-12-07T13:48:51;12.50;99.90
26408;DHT22;14583;43.604;1.364;2022-12-07T13:51:37;12.60;99.90
26408;DHT22;14583;43.604;1.364;2022-12-07T13:54:10;12.70;99.90
26408;DHT22;14583;43.604;1.364;2022-12-07T13:56:36;12.80;99.90
26408;DHT22;14583;43.604;1.364;2022-12-07T13:59:03;12.90;99.90
26408;DHT22;14583;43.604;1.364;2022-12-07T14:01:33;13.10;99.90
26408;DHT22;14583;43.604;1.364;2022-12-07T14:04:36;13.00;99.90
26408;DHT22;14583;43.604;1.364;2022-12-07T14:07:26;12.90;99.90
26408;DHT22;14583;43.604;1.364;2022-12-07T14:10:00;12.90;99.90
26408;DHT22;14583;43.604;1.364;2022-12-07T14:12:28;13.00;99.90
26408;DHT22;14583;43.604;1.364;2022-12-07T14:14:55;13.20;99.90
26408;DHT22;14583;43.604;1.364;2022-12-07T14:17:26;13.30;99.90
26408;DHT22;14583;43.604;1.364;2022-12-07T14:19:59;13.70;99.90
26408;DHT22;14583;43.604;1.364;2022-12-07T14:25:02;14.60;99.90
26408;DHT22;14583;43.604;1.364;2022-12-07T14:27:36;14.80;99.90
26408;DHT22;14583;43.604;1.364;2022-12-07T14:30:04;15.00;99.90
26408;DHT22;14583;43.604;1.364;2022-12-07T14:32:31;15.50;99.90
26408;DHT22;14583;43.604;1.364;2022-12-07T14:35:07;16.60;99.90
26408;DHT22;14583;43.604;1.364;2022-12-07T14:37:34;17.70;99.90
26408;DHT22;14583;43.604;1.364;2022-12-07T14:39:59;18.50;99.90
26408;DHT22;14583;43.604;1.364;2022-12-07T14:42:28;17.80;99.90
26408;DHT22;14583;43.604;1.364;2022-12-07T14:44:57;17.50;99.90
26408;DHT22;14583;43.604;1.364;2022-12-07T14:47:24;17.40;99.90
26408;DHT22;14583;43.604;1.364;2022-12-07T14:49:49;17.20;99.90
26408;DHT22;14583;43.604;1.364;2022-12-07T14:52:21;16.90;99.90
26408;DHT22;14583;43.604;1.364;2022-12-07T14:54:48;16.30;99.90
26408;DHT22;14583;43.604;1.364;2022-12-07T14:57:14;16.30;99.90
26408;DHT22;14583;43.604;1.364;2022-12-07T14:59:40;16.10;99.90
26408;DHT22;14583;43.604;1.364;2022-12-07T15:02:06;15.80;99.90
26408;DHT22;14583;43.604;1.364;2022-12-07T15:04:34;15.60;99.90
26408;DHT22;14583;43.604;1.364;2022-12-07T15:07:05;15.40;99.90
26408;DHT22;14583;43.604;1.364;2022-12-07T15:09:31;15.60;99.90
26408;DHT22;14583;43.604;1.364;2022-12-07T15:11:57;15.60;99.90
26408;DHT22;14583;43.604;1.364;2022-12-07T15:14:23;15.70;99.90
26408;DHT22;14583;43.604;1.364;2022-12-07T15:16:49;15.50;99.90
26408;DHT22;14583;43.604;1.364;2022-12-07T15:19:20;15.40;99.90
26408;DHT22;14583;43.604;1.364;2022-12-07T15:21:49;15.50;99.90
26408;DHT22;14583;43.604;1.364;2022-12-07T15:24:15;14.70;99.90
26408;DHT22;14583;43.604;1.364;2022-12-07T15:26:41;14.10;99.90
26408;DHT22;14583;43.604;1.364;2022-12-07T15:29:07;13.80;99.90
26408;DHT22;14583;43.604;1.364;2022-12-07T15:31:34;13.70;99.90
26408;DHT22;14583;43.604;1.364;2022-12-07T15:33:59;13.40;99.90
26408;DHT22;14583;43.604;1.364;2022-12-07T15:36:28;13.20;99.90
26408;DHT22;14583;43.604;1.364;2022-12-07T15:38:55;13.00;99.90
26408;DHT22;14583;43.604;1.364;2022-12-07T15:41:21;12.90;99.90
26408;DHT22;14583;43.604;1.364;2022-12-07T15:43:47;12.80;99.90
26408;DHT22;14583;43.604;1.364;2022-12-07T15:46:33;12.70;99.90
26408;DHT22;14583;43.604;1.364;2022-12-07T15:48:59;12.60;99.90
26408;DHT22;14583;43.604;1.364;2022-12-07T15:51:26;12.50;99.90
26408;DHT22;14583;43.604;1.364;2022-12-07T15:53:52;12.40;99.90
26408;DHT22;14583;43.604;1.364;2022-12-07T15:56:18;12.30;99.90
26408;DHT22;14583;43.604;1.364;2022-12-07T15:58:44;12.30;99.90
26408;DHT22;14583;43.604;1.364;2022-12-07T16:01:15;12.20;99.90
26408;DHT22;14583;43.604;1.364;2022-12-07T16:03:42;12.10;99.90
26408;DHT22;14583;43.604;1.364;2022-12-07T16:06:08;12.00;99.90
26408;DHT22;14583;43.604;1.364;2022-12-07T16:08:34;11.90;99.90
26408;DHT22;14583;43.604;1.364;2022-12-07T16:11:04;11.80;99.90
26408;DHT22;14583;43.604;1.364;2022-12-07T16:13:29;11.60;99.90
26408;DHT22;14583;43.604;1.364;2022-12-07T16:15:55;11.60;99.90
26408;DHT22;14583;43.604;1.364;2022-12-07T16:18:21;11.50;99.90
26408;DHT22;14583;43.604;1.364;2022-12-07T16:20:50;11.40;99.90
26408;DHT22;14583;43.604;1.364;2022-12-07T16:23:15;11.30;99.90
26408;DHT22;14583;43.604;1.364;2022-12-07T16:25:41;11.20;99.90
26408;DHT22;14583;43.604;1.364;2022-12-07T16:28:07;11.10;99.90
26408;DHT22;14583;43.604;1.364;2022-12-07T16:30:33;11.00;99.90
26408;DHT22;14583;43.604;1.364;2022-12-07T16:32:59;10.90;99.90
26408;DHT22;14583;43.604;1.364;2022-12-07T16:35:25;10.90;99.90
26408;DHT22;14583;43.604;1.364;2022-12-07T16:37:50;10.80;99.90
26408;DHT22;14583;43.604;1.364;2022-12-07T16:40:16;10.70;99.90
26408;DHT22;14583;43.604;1.364;2022-12-07T16:42:41;10.70;99.90
26408;DHT22;14583;43.604;1.364;2022-12-07T16:45:07;10.60;99.90
26408;DHT22;14583;43.604;1.364;2022-12-07T16:47:37;10.60;99.90
26408;DHT22;14583;43.604;1.364;2022-12-07T16:50:03;10.50;99.90
26408;DHT22;14583;43.604;1.364;2022-12-07T16:52:29;10.50;99.90
26408;DHT22;14583;43.604;1.364;2022-12-07T16:54:54;10.40;99.90
26408;DHT22;14583;43.604;1.364;2022-12-07T16:57:20;10.40;99.90
26408;DHT22;14583;43.604;1.364;2022-12-07T16:59:46;10.40;99.90
26408;DHT22;14583;43.604;1.364;2022-12-07T17:02:12;10.30;99.90
26408;DHT22;14583;43.604;1.364;2022-12-07T17:04:38;10.20;99.90
26408;DHT22;14583;43.604;1.364;2022-12-07T17:07:05;10.20;99.90
26408;DHT22;14583;43.604;1.364;2022-12-07T17:09:31;10.20;99.90
26408;DHT22;14583;43.604;1.364;2022-12-07T17:11:57;10.10;99.90
26408;DHT22;14583;43.604;1.364;2022-12-07T17:14:23;10.00;99.90
26408;DHT22;14583;43.604;1.364;2022-12-07T17:17:07;10.00;99.90
26408;DHT22;14583;43.604;1.364;2022-12-07T17:19:32;9.90;99.90
26408;DHT22;14583;43.604;1.364;2022-12-07T17:21:58;9.90;99.90
26408;DHT22;14583;43.604;1.364;2022-12-07T17:24:24;9.80;99.90
26408;DHT22;14583;43.604;1.364;2022-12-07T17:26:50;9.70;99.90
26408;DHT22;14583;43.604;1.364;2022-12-07T17:29:17;9.80;99.90
26408;DHT22;14583;43.604;1.364;2022-12-07T17:31:44;9.80;99.90
26408;DHT22;14583;43.604;1.364;2022-12-07T17:34:14;9.80;99.90
26408;DHT22;14583;43.604;1.364;2022-12-07T17:36:40;9.70;99.90
26408;DHT22;14583;43.604;1.364;2022-12-07T17:39:11;9.70;99.90
26408;DHT22;14583;43.604;1.364;2022-12-07T17:41:37;9.60;99.90
26408;DHT22;14583;43.604;1.364;2022-12-07T17:44:22;9.50;99.90
26408;DHT22;14583;43.604;1.364;2022-12-07T17:46:50;9.40;99.90
26408;DHT22;14583;43.604;1.364;2022-12-07T17:49:20;9.30;99.90
26408;DHT22;14583;43.604;1.364;2022-12-07T17:51:46;9.40;99.90
26408;DHT22;14583;43.604;1.364;2022-12-07T17:54:30;9.40;99.90
26408;DHT22;14583;43.604;1.364;2022-12-07T17:56:56;9.40;99.90
26408;DHT22;14583;43.604;1.364;2022-12-07T17:59:22;9.30;99.90
26408;DHT22;14583;43.604;1.364;2022-12-07T18:01:48;9.30;99.90
26408;DHT22;14583;43.604;1.364;2022-12-07T18:04:14;9.30;99.90
26408;DHT22;14583;43.604;1.364;2022-12-07T18:06:39;9.30;99.90
26408;DHT22;14583;43.604;1.364;2022-12-07T18:09:06;9.30;99.90
26408;DHT22;14583;43.604;1.364;2022-12-07T18:11:32;9.30;99.90
26408;DHT22;14583;43.604;1.364;2022-12-07T18:13:57;9.20;99.90
26408;DHT22;14583;43.604;1.364;2022-12-07T18:16:26;9.20;99.90
26408;DHT22;14583;43.604;1.364;2022-12-07T18:18:52;9.10;99.90
26408;DHT22;14583;43.604;1.364;2022-12-07T18:21:21;9.20;99.90
26408;DHT22;14583;43.604;1.364;2022-12-07T18:23:48;9.10;99.90
26408;DHT22;14583;43.604;1.364;2022-12-07T18:26:15;8.90;99.90
26408;DHT22;14583;43.604;1.364;2022-12-07T18:28:42;9.00;99.90
26408;DHT22;14583;43.604;1.364;2022-12-07T18:31:08;9.00;99.90
26408;DHT22;14583;43.604;1.364;2022-12-07T18:33:34;9.00;99.90
26408;DHT22;14583;43.604;1.364;2022-12-07T18:36:01;9.00;99.90